sensor_id;sensor_type;location;lat;lon;timestamp;pressure;altitude;pressure_sealevel;temperature;humidity
64628;BME280;68467;50.960;0.314;2023-10-13T00:01:22;99270.94;;;15.29;100.00
64628;BME280;68467;50.960;0.314;2023-10-13T00:03:50;99258.67;;;14.93;100.00
64628;BME280;68467;50.960;0.314;2023-10-13T00:06:17;99267.97;;;14.78;100.00
64628;BME280;68467;50.960;0.314;2023-10-13T00:08:45;99256.76;;;15.07;100.00
64628;BME280;68467;50.960;0.314;2023-10-13T00:11:13;99263.73;;;15.04;100.00
64628;BME280;68467;50.960;0.314;2023-10-13T00:13:41;99261.24;;;15.30;100.00
64628;BME280;68467;50.960;0.314;2023-10-13T00:16:09;99257.49;;;14.99;100.00
64628;BME280;68467;50.960;0.314;2023-10-13T00:18:36;99259.75;;;14.84;100.00
64628;BME280;68467;50.960;0.314;2023-10-13T00:21:03;99259.79;;;14.72;100.00
64628;BME280;68467;50.960;0.314;2023-10-13T00:23:31;99258.66;;;14.74;100.00
64628;BME280;68467;50.960;0.314;2023-10-13T00:25:58;99248.32;;;15.21;100.00
64628;BME280;68467;50.960;0.314;2023-10-13T00:28:25;99256.69;;;14.91;100.00
64628;BME280;68467;50.960;0.314;2023-10-13T00:30:53;99250.15;;;14.93;100.00
64628;BME280;68467;50.960;0.314;2023-10-13T00:33:22;99242.87;;;15.00;100.00
64628;BME280;68467;50.960;0.314;2023-10-13T00:35:50;99229.66;;;15.13;100.00
64628;BME280;68467;50.960;0.314;2023-10-13T00:38:17;99231.16;;;15.07;100.00
64628;BME280;68467;50.960;0.314;2023-10-13T00:40:45;99243.42;;;14.93;100.00
64628;BME280;68467;50.960;0.314;2023-10-13T00:43:12;99241.58;;;15.18;100.00
64628;BME280;68467;50.960;0.314;2023-10-13T00:45:40;99245.40;;;14.83;100.00
64628;BME280;68467;50.960;0.314;2023-10-13T00:48:07;99248.93;;;15.16;100.00
64628;BME280;68467;50.960;0.314;2023-10-13T00:50:34;99244.72;;;14.93;100.00
64628;BME280;68467;50.960;0.314;2023-10-13T00:53:02;99247.63;;;14.95;100.00
64628;BME280;68467;50.960;0.314;2023-10-13T00:55:30;99240.02;;;14.81;100.00
64628;BME280;68467;50.960;0.314;2023-10-13T00:57:58;99237.81;;;14.91;100.00
64628;BME280;68467;50.960;0.314;2023-10-13T01:00:26;99235.58;;;14.89;100.00
64628;BME280;68467;50.960;0.314;2023-10-13T01:02:53;99247.69;;;14.81;100.00
64628;BME280;68467;50.960;0.314;2023-10-13T01:05:21;99236.49;;;15.13;100.00
64628;BME280;68467;50.960;0.314;2023-10-13T01:07:48;99234.42;;;15.11;100.00
64628;BME280;68467;50.960;0.314;2023-10-13T01:10:16;99227.30;;;15.25;100.00
64628;BME280;68467;50.960;0.314;2023-10-13T01:12:44;99220.39;;;15.26;100.00
64628;BME280;68467;50.960;0.314;2023-10-13T01:15:11;99202.77;;;15.26;100.00
64628;BME280;68467;50.960;0.314;2023-10-13T01:17:38;99211.75;;;15.21;100.00
64628;BME280;68467;50.960;0.314;2023-10-13T01:20:06;99207.10;;;15.30;100.00
64628;BME280;68467;50.960;0.314;2023-10-13T01:22:33;99202.26;;;15.74;100.00
64628;BME280;68467;50.960;0.314;2023-10-13T01:25:00;99186.75;;;16.05;100.00
64628;BME280;68467;50.960;0.314;2023-10-13T01:27:27;99168.41;;;15.85;100.00
64628;BME280;68467;50.960;0.314;2023-10-13T01:29:54;99169.49;;;15.79;100.00
64628;BME280;68467;50.960;0.314;2023-10-13T01:32:22;99148.84;;;15.85;100.00
64628;BME280;68467;50.960;0.314;2023-10-13T01:34:50;99143.43;;;15.33;100.00
64628;BME280;68467;50.960;0.314;2023-10-13T01:37:18;99141.14;;;15.25;100.00
64628;BME280;68467;50.960;0.314;2023-10-13T01:39:45;99129.88;;;15.37;100.00
64628;BME280;68467;50.960;0.314;2023-10-13T01:42:12;99118.99;;;15.33;100.00
64628;BME280;68467;50.960;0.314;2023-10-13T01:44:39;99108.89;;;15.86;100.00
64628;BME280;68467;50.960;0.314;2023-10-13T01:47:06;99094.29;;;15.60;100.00
64628;BME280;68467;50.960;0.314;2023-10-13T01:49:33;99100.46;;;15.34;100.00
64628;BME280;68467;50.960;0.314;2023-10-13T01:52:01;99088.17;;;15.26;100.00
64628;BME280;68467;50.960;0.314;2023-10-13T01:54:28;99072.34;;;15.47;100.00
64628;BME280;68467;50.960;0.314;2023-10-13T01:56:55;99055.39;;;15.66;100.00
64628;BME280;68467;50.960;0.314;2023-10-13T01:59:24;99051.54;;;15.38;100.00
64628;BME280;68467;50.960;0.314;2023-10-13T02:01:52;99041.54;;;15.04;100.00
64628;BME280;68467;50.960;0.314;2023-10-13T02:04:19;99012.34;;;15.06;100.00
64628;BME280;68467;50.960;0.314;2023-10-13T02:06:46;99014.56;;;14.78;100.00
64628;BME280;68467;50.960;0.314;2023-10-13T02:09:13;99014.95;;;14.90;100.00
64628;BME280;68467;50.960;0.314;2023-10-13T02:11:42;98996.24;;;14.94;100.00
64628;BME280;68467;50.960;0.314;2023-10-13T02:14:09;98996.62;;;15.14;100.00
64628;BME280;68467;50.960;0.314;2023-10-13T02:16:37;98982.30;;;15.05;100.00
64628;BME280;68467;50.960;0.314;2023-10-13T02:19:04;98981.15;;;15.03;100.00
64628;BME280;68467;50.960;0.314;2023-10-13T02:21:31;98986.24;;;14.93;100.00
64628;BME280;68467;50.960;0.314;2023-10-13T02:23:59;98984.72;;;14.70;100.00
64628;BME280;68467;50.960;0.314;2023-10-13T02:26:26;98980.26;;;14.95;100.00
64628;BME280;68467;50.960;0.314;2023-10-13T02:28:54;98972.35;;;14.59;100.00
64628;BME280;68467;50.960;0.314;2023-10-13T02:31:27;98964.10;;;14.64;100.00
64628;BME280;68467;50.960;0.314;2023-10-13T02:33:54;98961.31;;;14.86;100.00
64628;BME280;68467;50.960;0.314;2023-10-13T02:36:22;98960.24;;;14.90;100.00
64628;BME280;68467;50.960;0.314;2023-10-13T02:38:49;98958.59;;;14.88;100.00
64628;BME280;68467;50.960;0.314;2023-10-13T02:41:18;98958.76;;;14.85;100.00
64628;BME280;68467;50.960;0.314;2023-10-13T02:43:45;98955.61;;;14.97;100.00
64628;BME280;68467;50.960;0.314;2023-10-13T02:46:14;98952.09;;;15.12;100.00
64628;BME280;68467;50.960;0.314;2023-10-13T02:48:41;98946.11;;;15.20;100.00
64628;BME280;68467;50.960;0.314;2023-10-13T02:51:09;98941.06;;;14.69;100.00
64628;BME280;68467;50.960;0.314;2023-10-13T02:53:36;98938.16;;;14.80;100.00
64628;BME280;68467;50.960;0.314;2023-10-13T02:56:03;98939.10;;;14.80;100.00
64628;BME280;68467;50.960;0.314;2023-10-13T02:58:30;98935.14;;;14.52;100.00
64628;BME280;68467;50.960;0.314;2023-10-13T03:00:57;98926.40;;;14.70;100.00
64628;BME280;68467;50.960;0.314;2023-10-13T03:03:25;98922.43;;;14.74;100.00
64628;BME280;68467;50.960;0.314;2023-10-13T03:05:52;98912.38;;;14.74;100.00
64628;BME280;68467;50.960;0.314;2023-10-13T03:08:20;98903.42;;;14.83;100.00
64628;BME280;68467;50.960;0.314;2023-10-13T03:10:47;98898.09;;;14.77;100.00
64628;BME280;68467;50.960;0.314;2023-10-13T03:13:14;98888.95;;;14.97;100.00
64628;BME280;68467;50.960;0.314;2023-10-13T03:15:41;98890.58;;;14.84;100.00
64628;BME280;68467;50.960;0.314;2023-10-13T03:18:08;98883.43;;;14.79;100.00
64628;BME280;68467;50.960;0.314;2023-10-13T03:20:38;98872.78;;;14.95;100.00
64628;BME280;68467;50.960;0.314;2023-10-13T03:23:06;98866.48;;;14.61;100.00
64628;BME280;68467;50.960;0.314;2023-10-13T03:25:33;98851.26;;;14.75;100.00
64628;BME280;68467;50.960;0.314;2023-10-13T03:28:00;98860.14;;;14.80;100.00
64628;BME280;68467;50.960;0.314;2023-10-13T03:30:28;98849.94;;;15.08;100.00
64628;BME280;68467;50.960;0.314;2023-10-13T03:32:55;98835.52;;;15.35;100.00
64628;BME280;68467;50.960;0.314;2023-10-13T03:35:23;98829.26;;;15.23;100.00
64628;BME280;68467;50.960;0.314;2023-10-13T03:37:50;98819.50;;;15.20;100.00
64628;BME280;68467;50.960;0.314;2023-10-13T03:40:17;98829.08;;;15.11;100.00
64628;BME280;68467;50.960;0.314;2023-10-13T03:42:45;98817.36;;;15.28;100.00
64628;BME280;68467;50.960;0.314;2023-10-13T03:45:12;98817.34;;;15.00;100.00
64628;BME280;68467;50.960;0.314;2023-10-13T03:47:39;98810.23;;;15.04;100.00
64628;BME280;68467;50.960;0.314;2023-10-13T03:50:07;98811.11;;;15.30;100.00
64628;BME280;68467;50.960;0.314;2023-10-13T03:52:34;98785.30;;;15.13;100.00
64628;BME280;68467;50.960;0.314;2023-10-13T03:55:01;98810.82;;;15.12;100.00
64628;BME280;68467;50.960;0.314;2023-10-13T03:57:28;98794.16;;;15.24;100.00
64628;BME280;68467;50.960;0.314;2023-10-13T03:59:55;98793.85;;;15.34;100.00
64628;BME280;68467;50.960;0.314;2023-10-13T04:02:22;98798.39;;;15.39;100.00
64628;BME280;68467;50.960;0.314;2023-10-13T04:04:50;98796.38;;;15.47;100.00
64628;BME280;68467;50.960;0.314;2023-10-13T04:07:17;98795.86;;;15.16;100.00
64628;BME280;68467;50.960;0.314;2023-10-13T04:09:44;98780.66;;;15.17;100.00
64628;BME280;68467;50.960;0.314;2023-10-13T04:12:11;98788.58;;;15.20;100.00
64628;BME280;68467;50.960;0.314;2023-10-13T04:14:41;98780.53;;;15.47;100.00
64628;BME280;68467;50.960;0.314;2023-10-13T04:17:13;98773.26;;;15.33;100.00
64628;BME280;68467;50.960;0.314;2023-10-13T04:19:40;98746.58;;;15.56;100.00
64628;BME280;68467;50.960;0.314;2023-10-13T04:22:07;98748.02;;;15.31;100.00
64628;BME280;68467;50.960;0.314;2023-10-13T04:24:34;98756.98;;;15.55;100.00
64628;BME280;68467;50.960;0.314;2023-10-13T04:27:01;98737.12;;;15.44;100.00
64628;BME280;68467;50.960;0.314;2023-10-13T04:29:29;98727.69;;;15.20;100.00
64628;BME280;68467;50.960;0.314;2023-10-13T04:31:56;98721.47;;;15.22;100.00
64628;BME280;68467;50.960;0.314;2023-10-13T04:34:24;98712.26;;;15.30;100.00
64628;BME280;68467;50.960;0.314;2023-10-13T04:36:56;98710.85;;;15.43;100.00
64628;BME280;68467;50.960;0.314;2023-10-13T04:39:23;98701.81;;;15.29;100.00
64628;BME280;68467;50.960;0.314;2023-10-13T04:41:51;98710.25;;;14.95;100.00
64628;BME280;68467;50.960;0.314;2023-10-13T04:44:18;98705.61;;;15.04;100.00
64628;BME280;68467;50.960;0.314;2023-10-13T04:46:45;98703.63;;;15.41;100.00
64628;BME280;68467;50.960;0.314;2023-10-13T04:49:12;98699.24;;;15.16;100.00
64628;BME280;68467;50.960;0.314;2023-10-13T04:51:39;98692.25;;;15.35;100.00
64628;BME280;68467;50.960;0.314;2023-10-13T04:54:06;98702.00;;;15.55;100.00
64628;BME280;68467;50.960;0.314;2023-10-13T04:56:33;98688.15;;;15.74;100.00
64628;BME280;68467;50.960;0.314;2023-10-13T04:59:01;98691.24;;;15.56;100.00
64628;BME280;68467;50.960;0.314;2023-10-13T05:01:28;98690.59;;;15.28;100.00
64628;BME280;68467;50.960;0.314;2023-10-13T05:03:55;98691.27;;;15.70;100.00
64628;BME280;68467;50.960;0.314;2023-10-13T05:06:23;98700.22;;;15.35;100.00
64628;BME280;68467;50.960;0.314;2023-10-13T05:08:50;98686.15;;;15.51;100.00
64628;BME280;68467;50.960;0.314;2023-10-13T05:11:17;98682.65;;;15.66;100.00
64628;BME280;68467;50.960;0.314;2023-10-13T05:13:44;98680.54;;;15.66;100.00
64628;BME280;68467;50.960;0.314;2023-10-13T05:16:12;98684.36;;;15.89;100.00
64628;BME280;68467;50.960;0.314;2023-10-13T05:18:40;98680.09;;;15.72;100.00
64628;BME280;68467;50.960;0.314;2023-10-13T05:21:07;98680.22;;;16.05;100.00
64628;BME280;68467;50.960;0.314;2023-10-13T05:23:34;98673.35;;;16.04;100.00
64628;BME280;68467;50.960;0.314;2023-10-13T05:26:02;98670.40;;;16.22;100.00
64628;BME280;68467;50.960;0.314;2023-10-13T05:28:34;98673.91;;;16.11;100.00
64628;BME280;68467;50.960;0.314;2023-10-13T05:31:01;98665.89;;;16.36;100.00
64628;BME280;68467;50.960;0.314;2023-10-13T05:33:29;98672.79;;;16.20;100.00
64628;BME280;68467;50.960;0.314;2023-10-13T05:35:56;98669.17;;;16.09;100.00
64628;BME280;68467;50.960;0.314;2023-10-13T05:38:24;98661.65;;;16.08;100.00
64628;BME280;68467;50.960;0.314;2023-10-13T05:40:52;98665.25;;;16.35;100.00
64628;BME280;68467;50.960;0.314;2023-10-13T05:43:19;98669.49;;;16.43;100.00
64628;BME280;68467;50.960;0.314;2023-10-13T05:45:46;98656.87;;;16.38;100.00
64628;BME280;68467;50.960;0.314;2023-10-13T05:48:14;98651.96;;;16.57;100.00
64628;BME280;68467;50.960;0.314;2023-10-13T05:50:46;98652.95;;;16.54;100.00
64628;BME280;68467;50.960;0.314;2023-10-13T05:53:12;98640.62;;;16.24;100.00
64628;BME280;68467;50.960;0.314;2023-10-13T05:55:39;98626.68;;;16.39;100.00
64628;BME280;68467;50.960;0.314;2023-10-13T05:58:06;98643.72;;;16.50;100.00
64628;BME280;68467;50.960;0.314;2023-10-13T06:00:38;98643.18;;;16.16;100.00
64628;BME280;68467;50.960;0.314;2023-10-13T06:03:06;98646.83;;;16.14;100.00
64628;BME280;68467;50.960;0.314;2023-10-13T06:05:33;98640.62;;;16.34;100.00
64628;BME280;68467;50.960;0.314;2023-10-13T06:08:02;98650.00;;;16.35;100.00
64628;BME280;68467;50.960;0.314;2023-10-13T06:10:32;98633.46;;;16.46;100.00
64628;BME280;68467;50.960;0.314;2023-10-13T06:12:59;98630.02;;;16.58;100.00
64628;BME280;68467;50.960;0.314;2023-10-13T06:15:26;98648.61;;;16.31;100.00
64628;BME280;68467;50.960;0.314;2023-10-13T06:17:55;98636.45;;;16.35;100.00
64628;BME280;68467;50.960;0.314;2023-10-13T06:20:22;98653.78;;;16.14;100.00
64628;BME280;68467;50.960;0.314;2023-10-13T06:22:50;98646.28;;;16.21;100.00
64628;BME280;68467;50.960;0.314;2023-10-13T06:25:17;98641.09;;;16.02;100.00
64628;BME280;68467;50.960;0.314;2023-10-13T06:27:44;98618.55;;;16.13;100.00
64628;BME280;68467;50.960;0.314;2023-10-13T06:30:12;98627.98;;;16.42;100.00
64628;BME280;68467;50.960;0.314;2023-10-13T06:32:39;98627.35;;;16.18;100.00
64628;BME280;68467;50.960;0.314;2023-10-13T06:35:07;98631.89;;;16.22;100.00
64628;BME280;68467;50.960;0.314;2023-10-13T06:37:34;98627.24;;;16.18;100.00
64628;BME280;68467;50.960;0.314;2023-10-13T06:40:03;98628.88;;;16.24;100.00
64628;BME280;68467;50.960;0.314;2023-10-13T06:42:30;98633.87;;;16.43;100.00
64628;BME280;68467;50.960;0.314;2023-10-13T06:44:57;98630.06;;;15.98;100.00
64628;BME280;68467;50.960;0.314;2023-10-13T06:47:25;98622.62;;;16.10;100.00
64628;BME280;68467;50.960;0.314;2023-10-13T06:49:52;98619.47;;;16.10;100.00
64628;BME280;68467;50.960;0.314;2023-10-13T06:52:20;98617.17;;;16.39;100.00
64628;BME280;68467;50.960;0.314;2023-10-13T06:54:49;98619.25;;;16.43;100.00
64628;BME280;68467;50.960;0.314;2023-10-13T06:57:17;98628.00;;;16.35;100.00
64628;BME280;68467;50.960;0.314;2023-10-13T06:59:45;98622.45;;;16.58;100.00
64628;BME280;68467;50.960;0.314;2023-10-13T07:02:12;98619.24;;;16.58;100.00
64628;BME280;68467;50.960;0.314;2023-10-13T07:04:40;98618.50;;;16.45;100.00
64628;BME280;68467;50.960;0.314;2023-10-13T07:07:08;98607.88;;;16.43;100.00
64628;BME280;68467;50.960;0.314;2023-10-13T07:09:36;98627.80;;;16.51;100.00
64628;BME280;68467;50.960;0.314;2023-10-13T07:12:05;98621.64;;;16.49;100.00
64628;BME280;68467;50.960;0.314;2023-10-13T07:14:35;98650.46;;;16.44;100.00
64628;BME280;68467;50.960;0.314;2023-10-13T07:17:04;98620.54;;;16.45;100.00
64628;BME280;68467;50.960;0.314;2023-10-13T07:19:32;98603.61;;;16.37;100.00
64628;BME280;68467;50.960;0.314;2023-10-13T07:22:04;98604.99;;;16.64;100.00
64628;BME280;68467;50.960;0.314;2023-10-13T07:24:31;98625.56;;;16.61;100.00
64628;BME280;68467;50.960;0.314;2023-10-13T07:26:58;98623.02;;;16.80;100.00
64628;BME280;68467;50.960;0.314;2023-10-13T07:29:26;98635.98;;;16.43;100.00
64628;BME280;68467;50.960;0.314;2023-10-13T07:31:53;98601.21;;;16.43;100.00
64628;BME280;68467;50.960;0.314;2023-10-13T07:34:20;98587.67;;;16.25;100.00
64628;BME280;68467;50.960;0.314;2023-10-13T07:36:48;98593.59;;;16.67;100.00
64628;BME280;68467;50.960;0.314;2023-10-13T07:39:15;98605.80;;;16.22;100.00
64628;BME280;68467;50.960;0.314;2023-10-13T07:41:42;98599.78;;;16.35;100.00
64628;BME280;68467;50.960;0.314;2023-10-13T07:44:09;98596.16;;;16.86;100.00
64628;BME280;68467;50.960;0.314;2023-10-13T07:46:37;98608.57;;;16.69;100.00
64628;BME280;68467;50.960;0.314;2023-10-13T07:49:04;98610.37;;;16.42;100.00
64628;BME280;68467;50.960;0.314;2023-10-13T07:51:31;98606.42;;;16.37;100.00
64628;BME280;68467;50.960;0.314;2023-10-13T07:53:59;98593.24;;;17.04;100.00
64628;BME280;68467;50.960;0.314;2023-10-13T07:56:26;98599.35;;;16.40;100.00
64628;BME280;68467;50.960;0.314;2023-10-13T07:58:53;98592.90;;;16.47;100.00
64628;BME280;68467;50.960;0.314;2023-10-13T08:01:20;98592.43;;;16.72;100.00
64628;BME280;68467;50.960;0.314;2023-10-13T08:03:48;98581.44;;;16.76;100.00
64628;BME280;68467;50.960;0.314;2023-10-13T08:06:17;98575.90;;;16.41;100.00
64628;BME280;68467;50.960;0.314;2023-10-13T08:08:44;98574.07;;;16.42;100.00
64628;BME280;68467;50.960;0.314;2023-10-13T08:11:13;98547.32;;;16.61;100.00
64628;BME280;68467;50.960;0.314;2023-10-13T08:13:41;98558.35;;;16.33;100.00
64628;BME280;68467;50.960;0.314;2023-10-13T08:16:09;98546.47;;;16.67;100.00
64628;BME280;68467;50.960;0.314;2023-10-13T08:18:36;98552.72;;;16.57;100.00
64628;BME280;68467;50.960;0.314;2023-10-13T08:21:03;98562.02;;;16.23;100.00
64628;BME280;68467;50.960;0.314;2023-10-13T08:23:31;98537.31;;;16.62;100.00
64628;BME280;68467;50.960;0.314;2023-10-13T08:25:58;98550.96;;;16.48;100.00
64628;BME280;68467;50.960;0.314;2023-10-13T08:28:26;98531.85;;;16.35;100.00
64628;BME280;68467;50.960;0.314;2023-10-13T08:30:52;98536.60;;;16.55;100.00
64628;BME280;68467;50.960;0.314;2023-10-13T08:33:20;98525.77;;;16.55;100.00
64628;BME280;68467;50.960;0.314;2023-10-13T08:35:46;98537.50;;;16.68;100.00
64628;BME280;68467;50.960;0.314;2023-10-13T08:38:14;98553.08;;;16.53;100.00
64628;BME280;68467;50.960;0.314;2023-10-13T08:40:44;98579.35;;;16.20;100.00
64628;BME280;68467;50.960;0.314;2023-10-13T08:43:12;98565.52;;;15.95;100.00
64628;BME280;68467;50.960;0.314;2023-10-13T08:45:41;98546.98;;;15.91;100.00
64628;BME280;68467;50.960;0.314;2023-10-13T08:48:13;98553.70;;;15.92;100.00
64628;BME280;68467;50.960;0.314;2023-10-13T08:50:43;98550.26;;;16.16;100.00
64628;BME280;68467;50.960;0.314;2023-10-13T08:53:10;98541.04;;;16.09;100.00
64628;BME280;68467;50.960;0.314;2023-10-13T08:55:38;98565.19;;;16.30;100.00
64628;BME280;68467;50.960;0.314;2023-10-13T08:58:06;98552.95;;;16.14;100.00
64628;BME280;68467;50.960;0.314;2023-10-13T09:00:33;98551.60;;;16.45;100.00
64628;BME280;68467;50.960;0.314;2023-10-13T09:03:05;98554.77;;;16.43;100.00
64628;BME280;68467;50.960;0.314;2023-10-13T09:05:34;98553.16;;;16.81;100.00
64628;BME280;68467;50.960;0.314;2023-10-13T09:08:02;98566.81;;;16.62;100.00
64628;BME280;68467;50.960;0.314;2023-10-13T09:10:30;98557.03;;;16.67;100.00
64628;BME280;68467;50.960;0.314;2023-10-13T09:12:57;98552.58;;;16.64;100.00
64628;BME280;68467;50.960;0.314;2023-10-13T09:15:29;98560.17;;;16.32;100.00
64628;BME280;68467;50.960;0.314;2023-10-13T09:17:56;98555.75;;;16.63;100.00
64628;BME280;68467;50.960;0.314;2023-10-13T09:20:30;98558.54;;;16.89;100.00
64628;BME280;68467;50.960;0.314;2023-10-13T09:22:57;98553.29;;;16.89;100.00
64628;BME280;68467;50.960;0.314;2023-10-13T09:25:24;98558.90;;;16.67;100.00
64628;BME280;68467;50.960;0.314;2023-10-13T09:27:51;98558.05;;;16.46;100.00
64628;BME280;68467;50.960;0.314;2023-10-13T09:30:19;98566.05;;;16.89;100.00
64628;BME280;68467;50.960;0.314;2023-10-13T09:32:58;98556.54;;;16.84;100.00
64628;BME280;68467;50.960;0.314;2023-10-13T09:35:26;98564.32;;;16.32;100.00
64628;BME280;68467;50.960;0.314;2023-10-13T09:37:54;98553.39;;;16.62;100.00
64628;BME280;68467;50.960;0.314;2023-10-13T09:40:21;98544.37;;;16.89;100.00
64628;BME280;68467;50.960;0.314;2023-10-13T09:42:49;98551.32;;;16.75;100.00
64628;BME280;68467;50.960;0.314;2023-10-13T09:45:18;98566.98;;;16.68;100.00
64628;BME280;68467;50.960;0.314;2023-10-13T09:47:49;98557.62;;;16.47;100.00
64628;BME280;68467;50.960;0.314;2023-10-13T09:50:19;98572.97;;;16.32;100.00
64628;BME280;68467;50.960;0.314;2023-10-13T09:52:47;98582.18;;;16.43;100.00
64628;BME280;68467;50.960;0.314;2023-10-13T09:55:22;98563.27;;;16.39;100.00
64628;BME280;68467;50.960;0.314;2023-10-13T09:58:01;98571.81;;;16.53;100.00
64628;BME280;68467;50.960;0.314;2023-10-13T10:00:32;98575.20;;;16.19;100.00
64628;BME280;68467;50.960;0.314;2023-10-13T10:03:05;98570.31;;;16.52;100.00
64628;BME280;68467;50.960;0.314;2023-10-13T10:05:33;98562.33;;;16.07;100.00
64628;BME280;68467;50.960;0.314;2023-10-13T10:08:00;98554.92;;;16.15;100.00
64628;BME280;68467;50.960;0.314;2023-10-13T10:10:42;98546.84;;;16.23;100.00
64628;BME280;68467;50.960;0.314;2023-10-13T10:13:19;98534.73;;;16.53;100.00
64628;BME280;68467;50.960;0.314;2023-10-13T10:15:51;98539.20;;;16.66;100.00
64628;BME280;68467;50.960;0.314;2023-10-13T10:18:20;98557.47;;;16.51;100.00
64628;BME280;68467;50.960;0.314;2023-10-13T10:20:49;98564.70;;;16.94;100.00
64628;BME280;68467;50.960;0.314;2023-10-13T10:23:24;98574.64;;;16.82;100.00
64628;BME280;68467;50.960;0.314;2023-10-13T10:25:51;98570.10;;;16.37;100.00
64628;BME280;68467;50.960;0.314;2023-10-13T10:28:18;98567.84;;;16.76;100.00
64628;BME280;68467;50.960;0.314;2023-10-13T10:30:46;98559.38;;;16.85;100.00
64628;BME280;68467;50.960;0.314;2023-10-13T10:33:14;98575.77;;;16.73;100.00
64628;BME280;68467;50.960;0.314;2023-10-13T10:35:42;98580.30;;;16.52;100.00
64628;BME280;68467;50.960;0.314;2023-10-13T10:38:12;98582.76;;;16.73;100.00
64628;BME280;68467;50.960;0.314;2023-10-13T10:40:49;98565.50;;;16.72;100.00
64628;BME280;68467;50.960;0.314;2023-10-13T10:43:17;98588.17;;;16.61;100.00
64628;BME280;68467;50.960;0.314;2023-10-13T10:45:46;98567.20;;;16.20;100.00
64628;BME280;68467;50.960;0.314;2023-10-13T10:48:15;98568.31;;;16.52;100.00
64628;BME280;68467;50.960;0.314;2023-10-13T10:50:42;98569.58;;;16.85;100.00
64628;BME280;68467;50.960;0.314;2023-10-13T10:53:10;98558.22;;;16.50;100.00
64628;BME280;68467;50.960;0.314;2023-10-13T10:55:38;98587.95;;;16.13;100.00
64628;BME280;68467;50.960;0.314;2023-10-13T10:58:05;98567.02;;;16.37;100.00
64628;BME280;68467;50.960;0.314;2023-10-13T11:00:32;98576.03;;;16.67;100.00
64628;BME280;68467;50.960;0.314;2023-10-13T11:02:59;98564.68;;;16.55;100.00
64628;BME280;68467;50.960;0.314;2023-10-13T11:05:26;98573.55;;;16.34;100.00
64628;BME280;68467;50.960;0.314;2023-10-13T11:07:53;98578.97;;;16.36;100.00
64628;BME280;68467;50.960;0.314;2023-10-13T11:10:21;98574.51;;;16.48;100.00
64628;BME280;68467;50.960;0.314;2023-10-13T11:12:56;98571.52;;;16.21;100.00
64628;BME280;68467;50.960;0.314;2023-10-13T11:15:23;98570.98;;;16.32;100.00
64628;BME280;68467;50.960;0.314;2023-10-13T11:17:51;98574.86;;;16.87;100.00
64628;BME280;68467;50.960;0.314;2023-10-13T11:20:19;98559.96;;;16.93;100.00
64628;BME280;68467;50.960;0.314;2023-10-13T11:22:46;98577.37;;;17.00;100.00
64628;BME280;68467;50.960;0.314;2023-10-13T11:25:23;98573.36;;;17.09;100.00
64628;BME280;68467;50.960;0.314;2023-10-13T11:27:52;98576.94;;;17.23;100.00
64628;BME280;68467;50.960;0.314;2023-10-13T11:30:20;98573.56;;;16.83;100.00
64628;BME280;68467;50.960;0.314;2023-10-13T11:32:57;98570.79;;;17.07;100.00
64628;BME280;68467;50.960;0.314;2023-10-13T11:35:24;98566.38;;;16.93;100.00
64628;BME280;68467;50.960;0.314;2023-10-13T11:37:51;98566.84;;;17.44;100.00
64628;BME280;68467;50.960;0.314;2023-10-13T11:40:19;98570.84;;;16.90;100.00
64628;BME280;68467;50.960;0.314;2023-10-13T11:42:46;98574.60;;;16.80;100.00
64628;BME280;68467;50.960;0.314;2023-10-13T11:45:13;98552.10;;;17.00;100.00
64628;BME280;68467;50.960;0.314;2023-10-13T11:47:40;98550.26;;;17.03;100.00
64628;BME280;68467;50.960;0.314;2023-10-13T11:50:08;98566.54;;;17.34;100.00
64628;BME280;68467;50.960;0.314;2023-10-13T11:52:35;98546.76;;;17.28;100.00
64628;BME280;68467;50.960;0.314;2023-10-13T11:55:02;98560.07;;;16.93;100.00
64628;BME280;68467;50.960;0.314;2023-10-13T11:57:29;98551.30;;;16.83;100.00
64628;BME280;68467;50.960;0.314;2023-10-13T11:59:56;98552.19;;;16.56;100.00
64628;BME280;68467;50.960;0.314;2023-10-13T12:02:23;98562.73;;;16.49;100.00
64628;BME280;68467;50.960;0.314;2023-10-13T12:04:51;98556.28;;;16.75;100.00
64628;BME280;68467;50.960;0.314;2023-10-13T12:07:19;98547.89;;;17.02;100.00
64628;BME280;68467;50.960;0.314;2023-10-13T12:09:49;98542.57;;;16.61;100.00
64628;BME280;68467;50.960;0.314;2023-10-13T12:12:16;98541.07;;;16.50;100.00
64628;BME280;68467;50.960;0.314;2023-10-13T12:14:44;98545.22;;;16.54;100.00
64628;BME280;68467;50.960;0.314;2023-10-13T12:17:11;98534.17;;;16.88;100.00
64628;BME280;68467;50.960;0.314;2023-10-13T12:19:38;98539.06;;;17.30;100.00
64628;BME280;68467;50.960;0.314;2023-10-13T12:22:05;98536.90;;;17.04;100.00
64628;BME280;68467;50.960;0.314;2023-10-13T12:24:33;98539.26;;;16.94;100.00
64628;BME280;68467;50.960;0.314;2023-10-13T12:27:01;98532.21;;;17.32;100.00
64628;BME280;68467;50.960;0.314;2023-10-13T12:29:28;98518.35;;;17.46;100.00
64628;BME280;68467;50.960;0.314;2023-10-13T12:31:55;98523.40;;;17.25;100.00
64628;BME280;68467;50.960;0.314;2023-10-13T12:34:23;98518.35;;;17.45;100.00
64628;BME280;68467;50.960;0.314;2023-10-13T12:36:50;98520.71;;;17.40;100.00
64628;BME280;68467;50.960;0.314;2023-10-13T12:39:17;98515.64;;;17.30;100.00
64628;BME280;68467;50.960;0.314;2023-10-13T12:41:44;98524.09;;;17.33;100.00
64628;BME280;68467;50.960;0.314;2023-10-13T12:44:11;98522.85;;;17.32;100.00
64628;BME280;68467;50.960;0.314;2023-10-13T12:46:39;98521.26;;;17.41;100.00
64628;BME280;68467;50.960;0.314;2023-10-13T12:49:06;98512.40;;;17.24;100.00
64628;BME280;68467;50.960;0.314;2023-10-13T12:51:33;98503.28;;;17.96;100.00
64628;BME280;68467;50.960;0.314;2023-10-13T12:54:01;98509.19;;;18.36;100.00